Pearl River, Louisiana
Current Conditions -  °F | °C
As of 5:53 PM on Wednesday 22 Oct 2014 (Local Time) from KASD Reporting Station
Clear Clear  
Wind Chill: 76°   Ceiling: Unl
Heat Index: 76°   Visibility: 10mi
Dew Point: 57°   Wind: 0mph
Humidity: 52%   Direction: NA
Pressure: 30.03"   Gusts: NA
Location:  30.38°N, 89.75°W
Report Text: KASD 222253Z AUTO 00000KT 10SM CLR 24/14 A3003 RMK AO2 SLP167 T02440139
Loading
Personal Weather Stations






























Interactive Weather Map
Tropical Storm Tracking
New forecast layout! Learn more

10-Day Weather Forecast

Advertisements
Track Severe Weather on mobile